createdAt,value
2022-08-05T00:00:20.403Z,55.47
2022-08-05T00:02:51.486Z,56.03
2022-08-05T00:06:02.985Z,55.84
2022-08-05T00:08:32.588Z,54.12
2022-08-05T00:11:00.369Z,52.49
2022-08-05T00:13:38.208Z,52.13
2022-08-05T00:16:10.867Z,52.16
2022-08-05T00:18:40.008Z,52.48
2022-08-05T00:21:09.818Z,51.63
2022-08-05T00:23:45.731Z,51.39
2022-08-05T00:26:16.583Z,51.19
2022-08-05T00:28:45.788Z,51.20
2022-08-05T00:31:13.808Z,51.47
2022-08-05T00:34:54.484Z,51.15
2022-08-05T00:37:11.705Z,51.57
2022-08-05T00:39:15.361Z,51.06
2022-08-05T00:41:55.093Z,51.32
2022-08-05T00:44:30.904Z,51.01
2022-08-05T00:47:02.071Z,51.20
2022-08-05T00:49:32.807Z,50.98
2022-08-05T00:52:00.798Z,51.16
2022-08-05T00:54:30.089Z,51.27
2022-08-05T00:56:57.558Z,51.57
2022-08-05T00:59:24.786Z,51.40
2022-08-05T01:01:52.006Z,51.26
2022-08-05T01:04:20.140Z,51.34
2022-08-05T01:06:54.954Z,50.81
2022-08-05T01:09:22.834Z,51.06
2022-08-05T01:11:52.354Z,51.01
2022-08-05T01:14:46.015Z,51.06
2022-08-05T01:17:40.274Z,52.71
2022-08-05T01:20:14.116Z,53.29
2022-08-05T01:22:46.881Z,55.75
2022-08-05T01:25:40.106Z,58.26
2022-08-05T01:28:42.844Z,60.10
2022-08-05T01:31:16.488Z,60.75
2022-08-05T01:33:56.648Z,61.25
2022-08-05T01:36:29.692Z,61.49
2022-08-05T01:39:01.211Z,61.28
2022-08-05T01:41:33.835Z,62.19
2022-08-05T01:44:02.501Z,62.20
2022-08-05T01:46:42.767Z,61.94
2022-08-05T01:49:24.155Z,61.73
2022-08-05T01:52:01.354Z,59.78
2022-08-05T01:54:46.041Z,57.61
2022-08-05T01:58:10.897Z,56.56
2022-08-05T02:00:11.942Z,56.24
2022-08-05T02:02:54.905Z,55.30
2022-08-05T02:05:23.911Z,54.30
2022-08-05T02:08:00.383Z,52.97
2022-08-05T02:10:51.306Z,52.23
2022-08-05T02:13:36.435Z,51.58
2022-08-05T02:16:30.675Z,51.21
2022-08-05T02:19:01.439Z,50.22
2022-08-05T02:21:43.361Z,49.33
2022-08-05T02:24:19.486Z,48.85
2022-08-05T02:27:00.541Z,49.07
2022-08-05T02:29:58.864Z,48.46
2022-08-05T02:32:31.608Z,48.64
2022-08-05T02:35:14.108Z,48.74
2022-08-05T02:37:53.800Z,48.74
2022-08-05T02:40:23.164Z,48.72
2022-08-05T02:42:54.085Z,48.87
2022-08-05T02:45:25.276Z,48.09
2022-08-05T02:48:07.389Z,47.51
2022-08-05T02:50:46.824Z,47.92
2022-08-05T02:53:19.457Z,47.74
2022-08-05T02:55:59.584Z,46.80
2022-08-05T02:58:28.871Z,47.18
2022-08-05T03:01:01.842Z,46.91
2022-08-05T03:03:33.726Z,47.36
2022-08-05T03:06:54.785Z,47.41
2022-08-05T03:09:07.769Z,47.29
2022-08-05T03:11:55.351Z,47.28
2022-08-05T03:14:22.527Z,47.63
2022-08-05T03:16:49.805Z,47.82
2022-08-05T03:19:34.082Z,48.04
2022-08-05T03:22:04.849Z,48.07
2022-08-05T03:24:47.288Z,48.04
2022-08-05T03:27:19.279Z,47.95
2022-08-05T03:30:08.111Z,47.42
2022-08-05T03:32:34.991Z,47.65
2022-08-05T03:35:04.524Z,47.81
2022-08-05T03:37:46.629Z,48.25
2022-08-05T03:40:15.554Z,47.95
2022-08-05T03:42:52.884Z,48.33
2022-08-05T03:45:21.575Z,48.35
2022-08-05T03:47:50.963Z,48.16
2022-08-05T03:50:18.481Z,48.47
2022-08-05T03:55:00.072Z,48.23
2022-08-05T03:56:10.875Z,48.72
2022-08-05T03:58:47.233Z,48.36
2022-08-05T04:01:18.566Z,48.83
2022-08-05T04:04:09.769Z,49.01
2022-08-05T04:06:38.119Z,49.25
2022-08-05T04:09:10.379Z,48.92
2022-08-05T04:11:47.713Z,49.02
2022-08-05T04:14:29.541Z,49.54
2022-08-05T04:16:59.956Z,49.58
2022-08-05T04:19:28.965Z,49.89
2022-08-05T04:22:08.506Z,49.66
2022-08-05T04:24:44.480Z,49.69
2022-08-05T04:27:13.743Z,50.16
2022-08-05T04:29:41.760Z,49.72
2022-08-05T04:32:09.856Z,49.71
2022-08-05T04:34:42.632Z,49.83
2022-08-05T04:37:10.844Z,49.60
2022-08-05T04:39:38.043Z,50.12
2022-08-05T04:42:06.876Z,50.10
2022-08-05T04:44:33.978Z,50.08
2022-08-05T04:47:08.899Z,50.39
2022-08-05T04:50:03.002Z,51.40
2022-08-05T04:52:27.798Z,50.93
2022-08-05T04:54:56.910Z,49.57
2022-08-05T04:57:28.422Z,49.17
2022-08-05T04:59:58.471Z,48.78
2022-08-05T05:02:42.010Z,48.57
2022-08-05T05:05:16.813Z,48.14
2022-08-05T05:07:56.466Z,47.73
2022-08-05T05:10:29.598Z,47.45
2022-08-05T05:12:57.417Z,44.57
2022-08-05T05:15:56.422Z,40.10
2022-08-05T05:18:16.585Z,36.34
2022-08-05T05:20:58.767Z,33.31
2022-08-05T05:23:25.951Z,31.75
2022-08-05T05:25:53.153Z,32.25
2022-08-05T05:28:20.701Z,33.89
2022-08-05T05:30:49.777Z,35.24
2022-08-05T05:33:17.713Z,37.07
2022-08-05T05:35:50.823Z,37.99
2022-08-05T05:38:22.843Z,38.56
2022-08-05T05:40:56.177Z,37.95
2022-08-05T05:43:54.454Z,35.62
2022-08-05T05:46:16.156Z,32.82
2022-08-05T05:48:47.996Z,31.83
2022-08-05T05:51:23.522Z,30.23
2022-08-05T05:53:57.883Z,29.38
2022-08-05T05:56:31.514Z,30.64
2022-08-05T05:59:03.199Z,28.80
2022-08-05T06:01:37.811Z,27.93
2022-08-05T06:04:12.168Z,27.70
2022-08-05T06:06:43.115Z,27.53
2022-08-05T06:09:17.667Z,28.59
2022-08-05T06:11:59.623Z,28.92
2022-08-05T06:14:33.302Z,27.71
2022-08-05T06:17:53.093Z,27.63
2022-08-05T06:19:56.649Z,26.70
2022-08-05T06:22:33.327Z,25.97
2022-08-05T06:25:24.692Z,25.45
2022-08-05T06:28:10.657Z,25.64
2022-08-05T06:30:36.742Z,28.16
2022-08-05T06:33:03.972Z,27.77
2022-08-05T06:36:07.538Z,28.72
2022-08-05T06:38:18.504Z,28.59
2022-08-05T06:41:07.906Z,29.58
2022-08-05T06:43:57.957Z,29.59
2022-08-05T06:46:30.341Z,29.69
2022-08-05T06:48:59.894Z,29.08
2022-08-05T06:51:29.974Z,28.85
2022-08-05T06:54:02.071Z,30.27
2022-08-05T06:56:33.342Z,29.57
2022-08-05T06:59:09.712Z,29.78
2022-08-05T07:01:40.873Z,30.41
2022-08-05T07:04:10.019Z,31.73
2022-08-05T07:06:37.329Z,29.98
2022-08-05T07:09:05.007Z,29.83
2022-08-05T07:11:36.920Z,29.92
2022-08-05T07:14:28.972Z,29.90
2022-08-05T07:18:01.975Z,30.46
2022-08-05T07:22:43.088Z,31.14
2022-08-05T07:25:23.621Z,29.71
2022-08-05T07:28:07.236Z,30.46
2022-08-05T07:30:38.448Z,30.42
2022-08-05T07:33:16.510Z,29.99
2022-08-05T07:36:02.115Z,30.48
2022-08-05T07:38:42.641Z,30.46
2022-08-05T07:41:35.006Z,31.93
2022-08-05T07:44:04.166Z,32.92
2022-08-05T07:46:33.801Z,33.47
2022-08-05T07:49:05.824Z,33.27
2022-08-05T07:51:48.538Z,33.23
2022-08-05T07:54:26.424Z,34.20
2022-08-05T07:57:01.603Z,34.99
2022-08-05T07:59:42.056Z,35.45
2022-08-05T08:02:16.608Z,36.03
2022-08-05T08:04:49.399Z,36.39
2022-08-05T08:07:22.792Z,36.59
2022-08-05T08:09:52.259Z,36.36
2022-08-05T08:12:37.350Z,36.11
2022-08-05T08:15:15.818Z,37.08
2022-08-05T08:17:52.355Z,37.41
2022-08-05T08:21:00.515Z,38.80
2022-08-05T08:23:59.798Z,39.54
2022-08-05T08:26:00.329Z,40.42
2022-08-05T08:28:36.530Z,41.15
2022-08-05T08:31:08.060Z,41.05
2022-08-05T08:33:37.901Z,41.98
2022-08-05T08:36:38.496Z,42.55
2022-08-05T08:38:57.798Z,43.10
2022-08-05T08:41:51.119Z,43.27
2022-08-05T08:45:18.731Z,43.71
2022-08-05T08:47:22.181Z,44.27
2022-08-05T08:50:22.299Z,44.74
2022-08-05T08:52:57.054Z,45.27
2022-08-05T08:56:01.979Z,45.59
2022-08-05T08:58:12.943Z,45.91
2022-08-05T09:00:42.463Z,47.29
2022-08-05T09:03:11.555Z,47.76
2022-08-05T09:06:08.628Z,48.53
2022-08-05T09:08:30.104Z,48.46
2022-08-05T09:10:58.763Z,49.39
2022-08-05T09:13:31.466Z,49.44
2022-08-05T09:15:59.794Z,51.61
2022-08-05T09:18:27.732Z,51.84
2022-08-05T09:20:57.311Z,54.34
2022-08-05T09:23:28.793Z,54.88
2022-08-05T09:26:20.612Z,56.55
2022-08-05T09:28:49.670Z,57.29
2022-08-05T09:31:43.796Z,57.88
2022-08-05T09:34:07.303Z,58.52
2022-08-05T09:36:54.767Z,59.10
2022-08-05T09:39:41.148Z,59.26
2022-08-05T09:42:17.477Z,58.63
2022-08-05T09:44:56.157Z,58.62
2022-08-05T09:47:34.953Z,59.11
2022-08-05T09:50:04.379Z,59.16
2022-08-05T09:52:34.170Z,59.41
2022-08-05T09:55:57.337Z,58.66
2022-08-05T09:57:58.442Z,58.73
2022-08-05T10:00:26.483Z,58.33
2022-08-05T10:02:54.952Z,57.85
2022-08-05T10:05:28.424Z,58.26
2022-08-05T10:08:36.630Z,58.81
2022-08-05T10:10:54.288Z,58.78
2022-08-05T10:13:47.475Z,58.69
2022-08-05T10:16:41.796Z,57.64
2022-08-05T10:19:23.813Z,57.17
2022-08-05T10:21:59.872Z,57.33
2022-08-05T10:24:28.605Z,58.03
2022-08-05T10:27:00.599Z,58.01
2022-08-05T10:30:41.348Z,58.20
2022-08-05T10:33:01.293Z,59.20
2022-08-05T10:35:05.442Z,60.15
2022-08-05T10:37:44.379Z,59.14
2022-08-05T10:40:32.095Z,60.19
2022-08-05T10:43:16.477Z,59.24
2022-08-05T10:45:56.515Z,59.43
2022-08-05T10:48:52.357Z,59.22
2022-08-05T10:51:28.879Z,58.15
2022-08-05T10:54:29.930Z,59.48
2022-08-05T10:56:57.782Z,57.71
2022-08-05T11:00:02.043Z,58.26
2022-08-05T11:02:38.422Z,58.31
2022-08-05T11:05:09.520Z,58.64
2022-08-05T11:08:02.816Z,59.76
2022-08-05T11:10:33.371Z,59.38
2022-08-05T11:13:01.436Z,59.74
2022-08-05T11:16:01.392Z,58.26
2022-08-05T11:18:35.481Z,57.95
2022-08-05T11:21:11.262Z,57.06
2022-08-05T11:24:04.418Z,56.77
2022-08-05T11:26:32.963Z,56.13
2022-08-05T11:29:13.357Z,57.40
2022-08-05T11:31:56.231Z,58.90
2022-08-05T11:34:51.032Z,59.06
2022-08-05T11:38:30.297Z,58.96
2022-08-05T11:41:56.223Z,56.79
2022-08-05T11:44:40.247Z,54.34
2022-08-05T11:47:11.181Z,52.88
2022-08-05T11:49:42.758Z,52.04
2022-08-05T11:52:11.347Z,52.35
2022-08-05T11:54:41.374Z,51.03
2022-08-05T11:57:24.807Z,51.47
2022-08-05T11:59:54.556Z,50.93
2022-08-05T12:02:31.451Z,51.08
2022-08-05T12:05:08.049Z,52.81
2022-08-05T12:08:08.179Z,53.04
2022-08-05T12:10:38.621Z,54.42
2022-08-05T12:13:16.920Z,55.34
2022-08-05T12:15:49.842Z,54.46
2022-08-05T12:18:32.767Z,55.24
2022-08-05T12:21:31.946Z,55.00
2022-08-05T12:24:08.419Z,55.37
2022-08-05T12:26:44.096Z,53.72
2022-08-05T12:29:26.341Z,52.84
2022-08-05T12:31:58.579Z,51.10
2022-08-05T12:34:32.966Z,52.04
2022-08-05T12:37:17.359Z,53.24
2022-08-05T12:39:51.301Z,51.93
2022-08-05T12:42:21.025Z,52.23
2022-08-05T12:44:48.695Z,51.56
2022-08-05T12:47:31.943Z,52.56
2022-08-05T12:50:03.698Z,50.70
2022-08-05T12:52:42.435Z,52.10
2022-08-05T12:55:32.464Z,55.28
2022-08-05T12:58:49.782Z,54.74
2022-08-05T13:02:02.921Z,52.92
2022-08-05T13:03:41.388Z,50.34
2022-08-05T13:06:19.985Z,50.15
2022-08-05T13:08:51.643Z,49.35
2022-08-05T13:12:01.920Z,47.76
2022-08-05T13:14:36.325Z,48.80
2022-08-05T13:17:25.036Z,50.34
2022-08-05T13:20:03.122Z,50.77
2022-08-05T13:22:30.746Z,53.77
2022-08-05T13:25:05.815Z,49.75
2022-08-05T13:27:39.347Z,53.61
2022-08-05T13:30:35.644Z,54.33
2022-08-05T13:32:57.461Z,51.73
2022-08-05T13:35:42.603Z,52.07
2022-08-05T13:38:20.071Z,53.04
2022-08-05T13:40:57.615Z,53.24
2022-08-05T13:43:24.764Z,51.62
2022-08-05T13:46:12.458Z,53.84
2022-08-05T13:48:58.711Z,56.67
2022-08-05T13:51:40.142Z,55.31
2022-08-05T13:54:12.012Z,58.46
2022-08-05T13:56:45.282Z,58.82
2022-08-05T13:59:23.797Z,60.11
2022-08-05T14:01:59.122Z,59.66
2022-08-05T14:04:53.882Z,56.68
2022-08-05T14:07:26.113Z,56.62
2022-08-05T14:10:19.254Z,52.86
2022-08-05T14:12:57.011Z,50.51
2022-08-05T14:16:06.275Z,50.49
2022-08-05T14:18:17.547Z,48.82
2022-08-05T14:20:48.174Z,49.22
2022-08-05T14:23:23.758Z,47.97
2022-08-05T14:25:58.718Z,47.87
2022-08-05T14:28:28.514Z,48.45
2022-08-05T14:30:57.864Z,48.68
2022-08-05T14:33:25.276Z,48.83
2022-08-05T14:35:54.369Z,48.89
2022-08-05T14:38:27.692Z,48.60
2022-08-05T14:41:05.980Z,49.06
2022-08-05T14:44:02.318Z,48.71
2022-08-05T14:46:29.023Z,50.44
2022-08-05T14:48:59.662Z,52.46
2022-08-05T14:51:31.923Z,53.81
2022-08-05T14:54:25.925Z,55.30
2022-08-05T14:56:47.533Z,54.25
2022-08-05T14:59:16.739Z,55.08
2022-08-05T15:01:48.012Z,53.59
2022-08-05T15:04:22.378Z,53.47
2022-08-05T15:06:51.541Z,54.37
2022-08-05T15:09:51.224Z,53.55
2022-08-05T15:12:09.489Z,55.05
2022-08-05T15:14:48.437Z,54.98
2022-08-05T15:17:47.025Z,58.91
2022-08-05T15:20:09.757Z,59.45
2022-08-05T15:22:44.849Z,58.27
2022-08-05T15:25:14.323Z,56.79
2022-08-05T15:27:43.038Z,54.90
2022-08-05T15:30:19.554Z,54.05
2022-08-05T15:32:47.117Z,52.52
2022-08-05T15:35:14.893Z,53.23
2022-08-05T15:38:32.353Z,52.08
2022-08-05T15:40:58.614Z,47.88
2022-08-05T15:43:20.563Z,46.83
2022-08-05T15:46:00.790Z,46.29
2022-08-05T15:48:29.050Z,46.72
2022-08-05T15:50:57.008Z,46.56
2022-08-05T15:53:26.607Z,46.24
2022-08-05T15:56:09.080Z,45.73
2022-08-05T15:58:40.775Z,45.71
2022-08-05T16:01:16.331Z,45.17
2022-08-05T16:03:50.865Z,42.28
2022-08-05T16:06:19.932Z,41.72
2022-08-05T16:08:51.132Z,41.71
2022-08-05T16:11:40.135Z,41.40
2022-08-05T16:14:09.140Z,41.58
2022-08-05T16:16:36.581Z,41.31
2022-08-05T16:19:04.466Z,41.18
2022-08-05T16:21:58.449Z,42.25
2022-08-05T16:24:40.407Z,41.71
2022-08-05T16:27:07.378Z,42.00
2022-08-05T16:29:37.073Z,42.72
2022-08-05T16:32:04.661Z,43.04
2022-08-05T16:34:31.862Z,42.61
2022-08-05T16:36:59.212Z,41.79
2022-08-05T16:40:05.991Z,41.30
2022-08-05T16:42:18.498Z,42.32
2022-08-05T16:44:57.101Z,44.46
2022-08-05T16:47:35.961Z,45.78
2022-08-05T16:50:10.474Z,48.05
2022-08-05T16:52:37.885Z,48.38
2022-08-05T16:55:05.384Z,49.31
2022-08-05T16:57:53.109Z,48.76
2022-08-05T17:00:34.109Z,49.82
2022-08-05T17:03:03.645Z,48.28
2022-08-05T17:05:32.121Z,52.61
2022-08-05T17:07:59.281Z,52.72
2022-08-05T17:10:30.470Z,53.45
2022-08-05T17:12:58.377Z,53.39
2022-08-05T17:15:48.010Z,53.34
2022-08-05T17:18:14.224Z,55.26
2022-08-05T17:20:42.311Z,56.79
2022-08-05T17:24:04.636Z,58.09
2022-08-05T17:25:58.917Z,59.73
2022-08-05T17:28:26.432Z,57.98
2022-08-05T17:30:56.265Z,56.36
2022-08-05T17:33:23.645Z,56.03
2022-08-05T17:36:08.024Z,56.12
2022-08-05T17:38:37.440Z,54.44
2022-08-05T17:41:11.624Z,54.96
2022-08-05T17:43:55.176Z,56.78
2022-08-05T17:46:23.912Z,57.96
2022-08-05T17:48:51.005Z,58.44
2022-08-05T17:51:21.452Z,59.59
2022-08-05T17:53:50.736Z,60.53
2022-08-05T17:56:22.719Z,61.32
2022-08-05T17:58:51.153Z,61.25
2022-08-05T18:01:18.949Z,61.02
2022-08-05T18:03:58.596Z,60.75
2022-08-05T18:06:31.115Z,60.83
2022-08-05T18:08:58.698Z,61.69
2022-08-05T18:11:32.996Z,63.22
2022-08-05T18:14:03.214Z,62.71
2022-08-05T18:16:32.246Z,61.11
2022-08-05T18:18:59.609Z,58.94
2022-08-05T18:21:28.717Z,57.83
2022-08-05T18:24:14.479Z,55.57
2022-08-05T18:26:41.971Z,53.63
2022-08-05T18:29:11.128Z,52.52
2022-08-05T18:31:43.126Z,52.25
2022-08-05T18:34:11.960Z,51.93
2022-08-05T18:36:41.129Z,51.45
2022-08-05T18:39:22.361Z,51.18
2022-08-05T18:42:03.739Z,51.10
2022-08-05T18:44:51.700Z,51.32
2022-08-05T18:47:26.634Z,51.66
2022-08-05T18:50:13.472Z,51.87
2022-08-05T18:52:51.007Z,51.86
2022-08-05T18:55:19.995Z,51.49
2022-08-05T18:57:52.625Z,51.76
2022-08-05T19:00:27.090Z,51.23
2022-08-05T19:03:03.671Z,50.92
2022-08-05T19:06:13.287Z,51.25
2022-08-05T19:08:19.220Z,50.99
2022-08-05T19:10:50.512Z,51.03
2022-08-05T19:13:18.221Z,51.18
2022-08-05T19:15:58.977Z,52.12
2022-08-05T19:18:30.577Z,51.76
2022-08-05T19:20:59.837Z,51.68
2022-08-05T19:24:06.839Z,52.26
2022-08-05T19:26:14.871Z,52.11
2022-08-05T19:28:43.866Z,52.70
2022-08-05T19:31:18.050Z,53.54
2022-08-05T19:33:56.886Z,54.19
2022-08-05T19:36:25.937Z,54.28
2022-08-05T19:39:01.077Z,54.80
2022-08-05T19:41:34.648Z,54.99
2022-08-05T19:44:19.042Z,54.58
2022-08-05T19:46:46.867Z,54.71
2022-08-05T19:49:16.929Z,54.61
2022-08-05T19:52:06.121Z,54.38
2022-08-05T19:54:37.070Z,53.43
2022-08-05T19:57:06.395Z,53.25
2022-08-05T19:59:55.916Z,52.82
2022-08-05T20:02:25.901Z,52.94
2022-08-05T20:04:55.001Z,53.12
2022-08-05T20:07:46.854Z,53.50
2022-08-05T20:10:13.143Z,53.59
2022-08-05T20:12:46.208Z,54.15
2022-08-05T20:15:48.907Z,53.65
2022-08-05T20:18:10.951Z,54.06
2022-08-05T20:20:55.149Z,54.62
2022-08-05T20:23:23.864Z,54.64
2022-08-05T20:26:16.248Z,54.57
2022-08-05T20:28:45.868Z,54.96
2022-08-05T20:31:16.516Z,54.68
2022-08-05T20:33:45.098Z,54.92
2022-08-05T20:36:14.295Z,55.17
2022-08-05T20:38:54.563Z,54.63
2022-08-05T20:41:44.358Z,54.00
2022-08-05T20:44:29.857Z,53.63
2022-08-05T20:47:03.971Z,53.31
2022-08-05T20:49:37.891Z,53.43
2022-08-05T20:52:07.320Z,53.55
2022-08-05T20:54:58.926Z,53.57
2022-08-05T20:57:24.614Z,53.77
2022-08-05T21:00:36.397Z,53.53
2022-08-05T21:03:06.308Z,53.46
2022-08-05T21:05:48.199Z,52.33
2022-08-05T21:08:26.816Z,52.13
2022-08-05T21:11:09.846Z,51.60
2022-08-05T21:13:48.008Z,51.35
2022-08-05T21:16:29.793Z,51.44
2022-08-05T21:19:00.361Z,51.21
2022-08-05T21:21:44.149Z,51.55
2022-08-05T21:24:19.564Z,50.96
2022-08-05T21:26:53.326Z,50.63
2022-08-05T21:29:26.626Z,50.48
2022-08-05T21:31:58.908Z,50.24
2022-08-05T21:34:26.150Z,50.08
2022-08-05T21:36:55.546Z,50.50
2022-08-05T21:39:26.897Z,50.60
2022-08-05T21:42:01.594Z,50.48
2022-08-05T21:44:31.047Z,50.24
2022-08-05T21:46:59.695Z,50.71
2022-08-05T21:50:00.059Z,50.29
2022-08-05T21:52:16.526Z,50.83
2022-08-05T21:54:51.890Z,50.67
2022-08-05T21:57:31.246Z,50.58
2022-08-05T22:00:11.389Z,49.94
2022-08-05T22:02:42.931Z,50.09
2022-08-05T22:05:12.208Z,49.65
2022-08-05T22:07:58.270Z,49.08
2022-08-05T22:10:27.578Z,49.02
2022-08-05T22:12:58.829Z,48.58
2022-08-05T22:16:00.852Z,48.71
2022-08-05T22:18:15.149Z,48.47
2022-08-05T22:20:46.865Z,49.15
2022-08-05T22:24:02.095Z,49.40
2022-08-05T22:26:43.342Z,49.94
2022-08-05T22:29:18.740Z,48.94
2022-08-05T22:31:55.221Z,48.54
2022-08-05T22:34:28.729Z,47.97
2022-08-05T22:36:58.307Z,47.06
2022-08-05T22:39:31.139Z,47.34
2022-08-05T22:42:12.287Z,47.41
2022-08-05T22:44:53.512Z,47.85
2022-08-05T22:47:30.084Z,48.28
2022-08-05T22:50:19.630Z,48.79
2022-08-05T22:52:49.990Z,49.00
2022-08-05T22:55:21.277Z,48.81
2022-08-05T22:57:50.458Z,48.59
2022-08-05T23:00:20.907Z,48.93
2022-08-05T23:02:49.417Z,48.89
2022-08-05T23:05:17.469Z,48.18
2022-08-05T23:07:49.566Z,47.78
2022-08-05T23:10:19.888Z,47.79
2022-08-05T23:12:54.273Z,48.09
2022-08-05T23:15:26.865Z,47.84
2022-08-05T23:18:00.485Z,47.67
2022-08-05T23:20:29.130Z,47.30
2022-08-05T23:22:56.627Z,47.60
2022-08-05T23:25:53.094Z,47.64
2022-08-05T23:28:15.872Z,47.37
2022-08-05T23:30:53.054Z,47.75
2022-08-05T23:33:25.646Z,47.62
2022-08-05T23:35:55.831Z,47.72
2022-08-05T23:38:24.558Z,47.75
2022-08-05T23:40:52.779Z,47.82
2022-08-05T23:43:25.554Z,47.74
2022-08-05T23:46:20.800Z,47.61
2022-08-05T23:49:00.412Z,47.45
2022-08-05T23:51:52.655Z,47.44
2022-08-05T23:54:36.487Z,47.42
2022-08-05T23:57:06.853Z,47.83
2022-08-05T23:59:37.668Z,48.90
